Time;durP1;ratioP1;P1;durP2;ratioP2;P2;SDS_P1;SDS_P2;PMS_P1;PMS_P2;Temp;Humidity;BMP_temperature;BMP_pressure;BME280_temperature;BME280_humidity;BME280_pressure;Samples;Min_cycle;Max_cycle;Signal;HPM_P1;HPM_P2
2024/01/07 00:00:29;;;;;;;1.67;1.58;;;;;;;-20.29;81.44;99354.56;4894922;29;20057;-79
2024/01/07 00:02:57;;;;;;;1.63;1.52;;;;;;;-20.30;81.31;99353.75;4896195;29;20052;-79
2024/01/07 00:05:24;;;;;;;1.50;1.40;;;;;;;-20.33;81.42;99351.25;4898215;29;20135;-79
2024/01/07 00:07:52;;;;;;;1.50;1.40;;;;;;;-20.30;81.45;99361.44;4898177;29;20044;-78
2024/01/07 00:10:19;;;;;;;1.90;1.80;;;;;;;-20.32;81.20;99365.78;4898462;29;20116;-79
2024/01/07 00:12:48;;;;;;;1.80;1.70;;;;;;;-20.34;81.09;99357.28;4897931;29;20520;-78
2024/01/07 00:15:15;;;;;;;1.75;1.65;;;;;;;-20.37;81.19;99368.47;4897776;29;20049;-79
2024/01/07 00:17:42;;;;;;;1.70;1.60;;;;;;;-20.39;81.10;99362.53;4880649;29;20394;-79
2024/01/07 00:20:11;;;;;;;1.50;1.40;;;;;;;-20.39;81.23;99374.53;4898127;29;20313;-80
2024/01/07 00:22:38;;;;;;;1.60;1.50;;;;;;;-20.51;81.13;99367.16;4896922;29;20049;-80
2024/01/07 00:25:05;;;;;;;1.60;1.50;;;;;;;-20.57;81.39;99384.44;4898772;29;20048;-79
2024/01/07 00:27:33;;;;;;;1.60;1.50;;;;;;;-20.63;81.57;99383.75;4898145;29;20100;-80
2024/01/07 00:30:00;;;;;;;1.70;1.60;;;;;;;-20.64;81.69;99388.06;4898639;29;20052;-80
2024/01/07 00:32:29;;;;;;;1.85;1.75;;;;;;;-20.64;81.86;99394.91;4897005;29;20075;-81
2024/01/07 00:34:57;;;;;;;1.60;1.50;;;;;;;-20.59;81.99;99404.16;4897847;29;20063;-82
2024/01/07 00:37:25;;;;;;;1.70;1.60;;;;;;;-20.55;81.63;99410.09;4897170;29;20410;-80
2024/01/07 00:39:54;;;;;;;1.65;1.55;;;;;;;-20.57;81.72;99411.84;4897980;29;20048;-79
2024/01/07 00:42:22;;;;;;;1.55;1.45;;;;;;;-20.54;81.62;99408.34;4897898;29;20052;-79
2024/01/07 00:44:49;;;;;;;1.63;1.52;;;;;;;-20.58;81.46;99416.13;4898096;29;20425;-80
2024/01/07 00:47:17;;;;;;;1.60;1.50;;;;;;;-20.64;81.52;99431.69;4881181;29;20052;-80
2024/01/07 00:49:44;;;;;;;1.58;1.48;;;;;;;-20.74;81.57;99429.41;4896357;29;20048;-80
2024/01/07 00:52:11;;;;;;;1.70;1.60;;;;;;;-20.72;81.67;99437.91;4897664;29;20096;-79
2024/01/07 00:54:39;;;;;;;1.80;1.70;;;;;;;-20.73;81.81;99438.75;4896473;29;20052;-79
2024/01/07 00:57:06;;;;;;;1.70;1.60;;;;;;;-20.79;81.50;99437.19;4897568;29;20076;-79
2024/01/07 00:59:33;;;;;;;1.77;1.67;;;;;;;-20.87;81.78;99454.50;4881120;29;20055;-79
2024/01/07 01:02:01;;;;;;;1.70;1.60;;;;;;;-20.90;81.97;99454.59;4897586;29;20065;-79
2024/01/07 01:04:29;;;;;;;2.03;1.92;;;;;;;-20.94;82.02;99468.38;4897486;29;20144;-79
2024/01/07 01:06:56;;;;;;;1.60;1.50;;;;;;;-20.93;82.08;99468.34;4896267;29;20048;-79
2024/01/07 01:09:24;;;;;;;1.80;1.70;;;;;;;-20.87;82.09;99467.34;4896571;29;20052;-79
2024/01/07 01:11:51;;;;;;;1.67;1.58;;;;;;;-20.93;81.96;99470.06;4897508;29;20052;-79
2024/01/07 01:14:19;;;;;;;1.65;1.55;;;;;;;-20.95;82.16;99471.81;4897466;29;20120;-79
2024/01/07 01:16:46;;;;;;;1.50;1.40;;;;;;;-20.93;82.10;99477.75;4896214;29;20048;-79
2024/01/07 01:19:13;;;;;;;1.60;1.50;;;;;;;-20.95;82.04;99482.09;4896132;29;20048;-79
2024/01/07 01:21:41;;;;;;;1.75;1.65;;;;;;;-20.99;82.18;99471.88;4897180;29;20059;-79
2024/01/07 01:24:08;;;;;;;1.70;1.60;;;;;;;-21.03;81.95;99479.69;4896048;29;20644;-79
2024/01/07 01:26:35;;;;;;;1.50;1.40;;;;;;;-21.04;81.87;99486.53;4897613;29;20049;-79
2024/01/07 01:29:02;;;;;;;1.65;1.55;;;;;;;-21.12;81.80;99491.00;4897476;29;20052;-79
2024/01/07 01:31:30;;;;;;;1.73;1.63;;;;;;;-21.12;82.11;99500.41;4897565;29;20060;-79
2024/01/07 01:33:57;;;;;;;1.50;1.40;;;;;;;-21.12;81.93;99506.38;4897518;29;20076;-80
2024/01/07 01:36:25;;;;;;;1.88;1.77;;;;;;;-21.11;81.84;99504.66;4897406;29;20463;-79
2024/01/07 01:38:52;;;;;;;1.90;1.80;;;;;;;-21.15;81.71;99514.16;4896978;29;20076;-79
2024/01/07 01:41:19;;;;;;;1.70;1.60;;;;;;;-21.22;81.76;99518.56;4895850;29;20060;-78
2024/01/07 01:43:47;;;;;;;1.80;1.70;;;;;;;-21.27;81.73;99522.94;4896911;29;20129;-79
2024/01/07 01:46:14;;;;;;;1.70;1.60;;;;;;;-21.33;82.04;99529.94;4886853;29;20416;-80
2024/01/07 01:48:42;;;;;;;1.70;1.60;;;;;;;-21.30;82.13;99529.88;4898115;29;20048;-79
2024/01/07 01:51:10;;;;;;;1.60;1.50;;;;;;;-21.38;82.03;99534.34;4897285;29;20137;-79
2024/01/07 01:53:39;;;;;;;1.60;1.50;;;;;;;-21.44;82.24;99538.75;4897689;29;20052;-79
2024/01/07 01:56:07;;;;;;;1.80;1.70;;;;;;;-21.43;82.22;99542.13;4897281;29;20144;-79
2024/01/07 01:58:34;;;;;;;1.60;1.50;;;;;;;-21.44;82.42;99541.31;4895725;29;20072;-79
2024/01/07 02:01:01;;;;;;;1.88;1.77;;;;;;;-21.52;82.31;99532.06;4895525;29;20135;-80
2024/01/07 02:03:29;;;;;;;1.60;1.50;;;;;;;-21.43;82.43;99557.53;4895608;29;20536;-79
2024/01/07 02:05:57;;;;;;;1.58;1.48;;;;;;;-21.46;82.50;99561.00;4895812;29;20044;-79
2024/01/07 02:08:25;;;;;;;1.85;1.75;;;;;;;-21.51;82.52;99560.25;4896824;29;20131;-79
2024/01/07 02:10:53;;;;;;;1.60;1.50;;;;;;;-21.51;82.57;99572.22;4896676;29;20518;-80
2024/01/07 02:13:21;;;;;;;1.70;1.60;;;;;;;-21.52;82.72;99568.78;4891160;29;20568;-79
2024/01/07 02:15:48;;;;;;;1.60;1.50;;;;;;;-21.50;82.61;99568.75;4895996;29;20135;-79
2024/01/07 02:18:16;;;;;;;1.67;1.58;;;;;;;-21.61;82.52;99558.75;4896806;29;20499;-79
2024/01/07 02:20:43;;;;;;;1.90;1.80;;;;;;;-21.55;82.37;99573.13;4895620;29;20139;-79
2024/01/07 02:23:11;;;;;;;1.70;1.60;;;;;;;-21.67;82.27;99572.53;4896692;29;20396;-79
2024/01/07 02:25:38;;;;;;;1.60;1.50;;;;;;;-21.74;82.31;99568.38;4896601;29;20158;-79
2024/01/07 02:28:06;;;;;;;1.83;1.73;;;;;;;-21.74;82.21;99557.28;4896677;29;20131;-78
2024/01/07 02:30:33;;;;;;;1.70;1.60;;;;;;;-21.75;82.08;99565.84;4896540;29;20060;-79
2024/01/07 02:33:03;;;;;;;1.60;1.50;;;;;;;-21.79;82.00;99567.63;4896784;29;20064;-79
2024/01/07 02:35:31;;;;;;;1.80;1.70;;;;;;;-21.84;81.96;99556.63;4896203;29;20144;-79
2024/01/07 02:37:58;;;;;;;1.60;1.50;;;;;;;-21.91;81.80;99558.44;4896675;29;20528;-79
2024/01/07 02:40:25;;;;;;;1.67;1.58;;;;;;;-21.94;81.76;99552.56;4896940;29;20502;-79
2024/01/07 02:42:53;;;;;;;1.70;1.60;;;;;;;-22.01;81.62;99556.94;4898679;29;20071;-79
2024/01/07 02:45:20;;;;;;;1.60;1.50;;;;;;;-22.10;81.40;99569.88;4900202;29;20061;-79
2024/01/07 02:47:47;;;;;;;1.80;1.70;;;;;;;-22.14;81.42;99573.41;4900224;29;20056;-78
2024/01/07 02:50:16;;;;;;;1.70;1.60;;;;;;;-22.14;81.42;99579.34;4900163;29;20080;-79
2024/01/07 02:52:43;;;;;;;1.67;1.58;;;;;;;-22.13;81.30;99585.31;4898746;29;20045;-79
2024/01/07 02:55:10;;;;;;;1.75;1.65;;;;;;;-22.17;81.12;99586.25;4898688;29;20059;-79
2024/01/07 02:57:38;;;;;;;1.75;1.65;;;;;;;-22.18;81.24;99577.72;4899987;29;20143;-79
2024/01/07 03:00:06;;;;;;;1.92;1.83;;;;;;;-22.15;81.25;99592.16;4899941;29;20462;-79
2024/01/07 03:02:33;;;;;;;1.88;1.77;;;;;;;-22.14;81.31;99593.88;4899694;29;20063;-79
2024/01/07 03:05:01;;;;;;;1.80;1.70;;;;;;;-22.11;81.36;99604.06;4899725;29;20112;-79
2024/01/07 03:07:30;;;;;;;1.80;1.70;;;;;;;-22.11;81.37;99616.84;4899671;29;20052;-79
2024/01/07 03:09:58;;;;;;;1.77;1.67;;;;;;;-22.11;81.29;99609.19;4900038;29;20439;-79
2024/01/07 03:12:25;;;;;;;2.00;1.90;;;;;;;-22.12;81.30;99621.13;4900109;29;20055;-79
2024/01/07 03:14:52;;;;;;;1.90;1.80;;;;;;;-22.12;81.35;99623.69;4901720;29;20052;-80
2024/01/07 03:17:21;;;;;;;1.75;1.65;;;;;;;-22.20;80.99;99615.34;4900943;29;20059;-80
2024/01/07 03:19:48;;;;;;;1.70;1.60;;;;;;;-22.25;81.15;99613.72;4914469;29;20057;-79
2024/01/07 03:22:16;;;;;;;1.70;1.60;;;;;;;-22.28;80.87;99627.41;4899522;29;20060;-79
2024/01/07 03:24:43;;;;;;;1.60;1.50;;;;;;;-22.33;80.74;99626.63;4899553;29;20051;-79
2024/01/07 03:27:10;;;;;;;1.70;1.60;;;;;;;-22.42;80.95;99635.31;4899632;29;20425;-79
2024/01/07 03:29:38;;;;;;;1.70;1.60;;;;;;;-22.48;80.93;99622.59;4899317;29;20056;-79
2024/01/07 03:32:05;;;;;;;1.85;1.75;;;;;;;-22.47;80.95;99636.25;4900584;29;20112;-79
2024/01/07 03:34:33;;;;;;;1.80;1.70;;;;;;;-22.48;81.01;99639.66;4902400;29;20104;-79
2024/01/07 03:37:00;;;;;;;1.70;1.60;;;;;;;-22.52;81.00;99648.28;4900658;29;20057;-78
2024/01/07 03:39:28;;;;;;;1.90;1.80;;;;;;;-22.54;81.12;99651.69;4899043;29;20520;-80
2024/01/07 03:41:55;;;;;;;1.80;1.70;;;;;;;-22.57;81.24;99650.91;4898833;29;20064;-81
2024/01/07 03:44:23;;;;;;;1.77;1.67;;;;;;;-22.56;80.76;99662.81;4898036;29;20052;-79
2024/01/07 03:46:51;;;;;;;1.70;1.60;;;;;;;-22.62;80.86;99652.69;4899105;29;20052;-79
2024/01/07 03:49:18;;;;;;;1.70;1.60;;;;;;;-22.64;80.96;99656.97;4897807;29;20164;-79
2024/01/07 03:51:45;;;;;;;1.80;1.70;;;;;;;-22.62;81.01;99662.91;4898142;29;20057;-79
2024/01/07 03:54:13;;;;;;;1.70;1.60;;;;;;;-22.67;81.13;99662.13;4898972;29;20139;-79
2024/01/07 03:56:40;;;;;;;1.80;1.70;;;;;;;-22.65;81.08;99678.31;4897550;29;20076;-79
2024/01/07 03:59:07;;;;;;;1.77;1.67;;;;;;;-22.57;81.16;99682.44;4898732;29;20100;-79
2024/01/07 04:01:34;;;;;;;1.70;1.60;;;;;;;-22.57;80.81;99686.72;4898589;29;20087;-79
2024/01/07 04:04:02;;;;;;;1.90;1.80;;;;;;;-22.62;80.65;99691.06;4897278;29;20048;-79
2024/01/07 04:06:30;;;;;;;1.70;1.60;;;;;;;-22.62;80.79;99691.06;4899103;29;20525;-79
2024/01/07 04:08:57;;;;;;;1.80;1.70;;;;;;;-22.63;80.78;99695.31;4897902;29;20052;-79
2024/01/07 04:11:24;;;;;;;1.90;1.80;;;;;;;-22.57;80.82;99694.38;4898652;29;20510;-79
2024/01/07 04:13:52;;;;;;;1.80;1.70;;;;;;;-22.58;80.70;99701.22;4898462;29;20052;-79
2024/01/07 04:16:20;;;;;;;1.70;1.60;;;;;;;-22.67;80.49;99701.34;4898417;29;20108;-80
2024/01/07 04:18:47;;;;;;;1.70;1.60;;;;;;;-22.76;80.56;99701.44;4898563;29;20422;-80
2024/01/07 04:21:20;;;;;;;1.80;1.70;;;;;;;-22.79;80.73;99706.59;4898324;29;20514;-79
2024/01/07 04:23:47;;;;;;;1.70;1.60;;;;;;;-22.86;80.66;99699.88;4898349;29;20115;-79
2024/01/07 04:26:15;;;;;;;1.60;1.50;;;;;;;-22.89;80.64;99703.31;4898224;29;20055;-79
2024/01/07 04:28:43;;;;;;;1.70;1.60;;;;;;;-22.93;80.55;99713.59;4896968;29;20055;-79
2024/01/07 04:31:10;;;;;;;2.00;1.90;;;;;;;-22.98;80.46;99722.22;4897957;29;20135;-79
2024/01/07 04:33:38;;;;;;;1.90;1.80;;;;;;;-23.05;80.60;99720.59;4896957;29;20503;-79
2024/01/07 04:36:05;;;;;;;1.90;1.80;;;;;;;-23.02;80.76;99727.38;4896513;29;20055;-79
2024/01/07 04:38:33;;;;;;;1.80;1.70;;;;;;;-22.96;80.71;99719.59;4898143;29;20064;-79
2024/01/07 04:41:00;;;;;;;1.70;1.60;;;;;;;-22.98;80.32;99731.59;4896913;29;20503;-78
2024/01/07 04:43:27;;;;;;;1.80;1.70;;;;;;;-22.99;80.40;99733.28;4897987;29;20471;-79
2024/01/07 04:45:55;;;;;;;1.80;1.70;;;;;;;-23.04;80.18;99742.72;4894002;29;20118;-80
2024/01/07 04:48:22;;;;;;;1.70;1.60;;;;;;;-23.09;80.11;99743.66;4889665;29;20079;-80
2024/01/07 04:50:50;;;;;;;1.80;1.70;;;;;;;-23.14;80.01;99753.09;4885469;29;20052;-79
2024/01/07 04:53:17;;;;;;;1.90;1.80;;;;;;;-23.15;80.12;99757.34;4886867;29;20048;-79
2024/01/07 04:55:44;;;;;;;1.70;1.60;;;;;;;-23.07;80.07;99762.38;4889825;29;20462;-82
2024/01/07 04:58:12;;;;;;;1.80;1.70;;;;;;;-23.09;80.07;99770.06;4894727;29;20056;-80
2024/01/07 05:00:40;;;;;;;1.80;1.70;;;;;;;-23.16;80.05;99771.00;4895142;29;20056;-80
2024/01/07 05:03:08;;;;;;;1.70;1.60;;;;;;;-23.22;79.73;99773.63;4897587;29;20060;-82
2024/01/07 05:05:36;;;;;;;1.83;1.73;;;;;;;-23.23;80.05;99772.78;4897755;29;20048;-85
2024/01/07 05:08:04;;;;;;;1.85;1.75;;;;;;;-23.17;80.11;99779.53;4896622;29;20100;-81
2024/01/07 05:10:32;;;;;;;1.80;1.70;;;;;;;-23.19;79.98;99776.13;4896125;29;20057;-80
2024/01/07 05:13:04;;;;;;;1.80;1.70;;;;;;;-23.14;80.03;99781.19;4897218;29;20086;-80
2024/01/07 05:15:32;;;;;;;1.85;1.75;;;;;;;-23.20;79.80;99775.28;4892804;29;20140;-81
2024/01/07 05:18:00;;;;;;;1.80;1.70;;;;;;;-23.22;79.67;99784.69;4887227;29;20391;-81
2024/01/07 05:20:28;;;;;;;1.90;1.80;;;;;;;-23.34;79.63;99789.94;4871924;29;20052;-83
2024/01/07 05:22:55;;;;;;;1.90;1.80;;;;;;;-23.43;79.69;99795.94;4887296;29;20080;-81
2024/01/07 05:25:22;;;;;;;1.88;1.77;;;;;;;-23.51;79.50;99786.69;4892514;29;20052;-81
2024/01/07 05:27:50;;;;;;;1.90;1.80;;;;;;;-23.60;79.63;99796.97;4889639;29;20440;-81
2024/01/07 05:30:17;;;;;;;1.90;1.80;;;;;;;-23.63;79.73;99798.69;4889040;29;20053;-80
2024/01/07 05:32:45;;;;;;;1.90;1.80;;;;;;;-23.69;79.80;99797.91;4890428;29;20051;-79
2024/01/07 05:35:13;;;;;;;1.90;1.80;;;;;;;-23.61;79.92;99808.06;4884362;29;20967;-79
2024/01/07 05:37:40;;;;;;;1.80;1.70;;;;;;;-23.60;79.79;99812.28;4890461;29;20518;-78
2024/01/07 05:40:08;;;;;;;1.80;1.70;;;;;;;-23.67;79.63;99829.34;4888470;29;20051;-79
2024/01/07 05:42:35;;;;;;;1.90;1.80;;;;;;;-23.67;79.55;99819.13;4887076;29;20077;-80
2024/01/07 05:45:03;;;;;;;2.00;1.90;;;;;;;-23.72;79.63;99829.44;4898014;29;20414;-82
2024/01/07 05:47:31;;;;;;;1.90;1.80;;;;;;;-23.73;79.57;99835.41;4894445;29;20049;-85
2024/01/07 05:49:58;;;;;;;2.03;1.92;;;;;;;-23.78;79.51;99838.84;4896255;29;20545;-83
2024/01/07 05:52:25;;;;;;;2.10;2.00;;;;;;;-23.78;79.32;99849.91;4880384;29;20059;-78
2024/01/07 05:54:53;;;;;;;1.90;1.80;;;;;;;-23.75;79.50;99856.69;4890232;29;20503;-82
2024/01/07 05:57:20;;;;;;;1.90;1.80;;;;;;;-23.75;79.37;99860.09;4895764;29;20057;-82
2024/01/07 05:59:50;;;;;;;1.80;1.70;;;;;;;-23.70;79.48;99865.13;4896977;29;20048;-81
2024/01/07 06:02:22;;;;;;;1.98;1.88;;;;;;;-23.66;79.08;99870.22;4898250;29;20091;-81
2024/01/07 06:04:50;;;;;;;1.83;1.73;;;;;;;-23.64;79.12;99883.84;4896974;29;20053;-82
2024/01/07 06:07:17;;;;;;;1.98;1.88;;;;;;;-23.60;78.98;99876.13;4895967;29;20059;-81
2024/01/07 06:09:45;;;;;;;1.98;1.88;;;;;;;-23.54;78.68;99893.97;4897034;29;20072;-82
2024/01/07 06:12:12;;;;;;;1.90;1.80;;;;;;;-23.55;78.71;99897.38;4897282;29;20112;-82
2024/01/07 06:14:52;;;;;;;1.80;1.70;;;;;;;-23.47;78.51;99908.41;4896863;29;20058;-81
2024/01/07 06:17:20;;;;;;;1.80;1.70;;;;;;;-23.46;78.33;99912.66;4899969;29;20063;-81
2024/01/07 06:19:47;;;;;;;1.80;1.70;;;;;;;-23.52;78.15;99912.69;4900928;29;20049;-81
2024/01/07 06:22:15;;;;;;;1.90;1.80;;;;;;;-23.55;78.13;99917.81;4900919;29;20076;-82
2024/01/07 06:24:42;;;;;;;1.90;1.80;;;;;;;-23.58;78.53;99911.03;4901183;29;20076;-81
2024/01/07 06:27:09;;;;;;;1.90;1.80;;;;;;;-23.53;78.44;99916.13;4900619;29;20048;-82
2024/01/07 06:29:37;;;;;;;2.20;2.08;;;;;;;-23.55;78.41;99920.38;4900814;29;20063;-81
2024/01/07 06:32:04;;;;;;;1.80;1.70;;;;;;;-23.60;78.45;99906.78;4900829;29;20054;-82
2024/01/07 06:34:33;;;;;;;2.00;1.90;;;;;;;-23.60;78.28;99911.91;4900500;29;20048;-81
2024/01/07 06:37:00;;;;;;;1.90;1.80;;;;;;;-23.58;78.34;99921.25;4900644;29;20052;-82
2024/01/07 06:39:27;;;;;;;1.80;1.70;;;;;;;-23.59;78.23;99921.25;4900510;29;20052;-82
2024/01/07 06:41:55;;;;;;;1.90;1.80;;;;;;;-23.66;77.98;99911.09;4898950;29;20061;-81
2024/01/07 06:44:22;;;;;;;1.90;1.80;;;;;;;-23.66;78.20;99928.97;4899855;29;20100;-83
2024/01/07 06:46:49;;;;;;;1.92;1.83;;;;;;;-23.73;78.09;99918.81;4902013;29;20055;-82
2024/01/07 06:49:18;;;;;;;1.90;1.80;;;;;;;-23.69;77.93;99928.16;4901768;29;20056;-82
2024/01/07 06:51:45;;;;;;;2.13;2.03;;;;;;;-23.60;78.21;99940.84;4901568;29;20057;-82
2024/01/07 06:54:13;;;;;;;1.90;1.80;;;;;;;-23.57;78.05;99942.53;4900193;29;20048;-82
2024/01/07 06:56:41;;;;;;;1.90;1.80;;;;;;;-23.46;78.04;99964.59;4901801;29;20068;-82
2024/01/07 06:59:10;;;;;;;1.98;1.88;;;;;;;-23.37;78.10;99966.25;4901593;29;20044;-82
2024/01/07 07:01:38;;;;;;;1.90;1.80;;;;;;;-23.25;78.09;99966.16;4901470;29;20059;-83
2024/01/07 07:04:08;;;;;;;2.10;2.00;;;;;;;-23.16;77.50;99954.16;4901891;29;20044;-82
2024/01/07 07:06:35;;;;;;;2.10;2.00;;;;;;;-22.98;77.32;99969.38;4905964;29;20447;-81
2024/01/07 07:09:03;;;;;;;1.90;1.80;;;;;;;-22.87;77.54;99965.00;4906495;29;20049;-81
2024/01/07 07:11:30;;;;;;;1.80;1.70;;;;;;;-22.76;77.13;99965.75;4902732;29;20518;-82
2024/01/07 07:13:58;;;;;;;1.95;1.85;;;;;;;-22.50;76.98;99971.47;4900026;29;20052;-81
2024/01/07 07:16:25;;;;;;;1.88;1.77;;;;;;;-22.38;76.73;99976.47;4898563;29;20057;-81
2024/01/07 07:18:53;;;;;;;1.83;1.73;;;;;;;-22.31;76.21;99966.16;4899866;29;20072;-82
2024/01/07 07:21:20;;;;;;;2.00;1.90;;;;;;;-22.10;76.00;99961.63;4899920;29;20077;-81
2024/01/07 07:23:47;;;;;;;2.00;1.90;;;;;;;-21.96;75.91;99956.38;4899878;29;20048;-81
2024/01/07 07:26:15;;;;;;;2.00;1.90;;;;;;;-21.86;75.26;99963.06;4903139;29;20044;-81
2024/01/07 07:28:42;;;;;;;2.08;1.98;;;;;;;-21.97;74.45;99964.91;4906027;29;20099;-82
2024/01/07 07:31:11;;;;;;;2.00;1.90;;;;;;;-22.03;74.02;99972.66;4903352;29;20069;-82
2024/01/07 07:33:40;;;;;;;1.90;1.80;;;;;;;-21.96;74.06;99972.56;4899666;29;20399;-82
2024/01/07 07:36:10;;;;;;;2.10;2.00;;;;;;;-21.84;73.42;99979.28;4899322;29;20421;-82
2024/01/07 07:38:37;;;;;;;2.17;2.05;;;;;;;-21.80;73.05;99991.16;4898360;29;20425;-82
2024/01/07 07:41:04;;;;;;;2.10;1.95;;;;;;;-21.81;72.10;99997.16;4899145;29;20052;-82
2024/01/07 07:43:32;;;;;;;2.00;1.90;;;;;;;-21.53;71.87;99997.66;4899372;29;20088;-82
2024/01/07 07:46:01;;;;;;;1.90;1.80;;;;;;;-21.14;71.32;99992.81;4899901;29;20430;-81
2024/01/07 07:48:29;;;;;;;1.90;1.80;;;;;;;-20.69;70.67;99995.53;4898321;29;20104;-81
2024/01/07 07:50:56;;;;;;;1.90;1.80;;;;;;;-20.40;69.91;100004.47;4899053;29;20048;-81
2024/01/07 07:53:24;;;;;;;2.00;1.90;;;;;;;-20.02;69.71;99992.63;4897910;29;20104;-82
2024/01/07 07:55:51;;;;;;;1.80;1.70;;;;;;;-19.51;68.96;100013.03;4897886;29;20485;-82
2024/01/07 07:58:19;;;;;;;1.80;1.70;;;;;;;-19.34;68.46;100015.22;4899703;29;20052;-82
2024/01/07 08:00:48;;;;;;;1.90;1.80;;;;;;;-19.15;67.75;100015.69;4883904;29;20055;-82
2024/01/07 08:03:15;;;;;;;1.90;1.80;;;;;;;-18.83;67.54;100020.13;4900527;29;20418;-82
2024/01/07 08:05:43;;;;;;;1.80;1.70;;;;;;;-18.66;66.75;100022.25;4898211;29;20054;-81
2024/01/07 08:08:10;;;;;;;2.00;1.90;;;;;;;-18.52;66.04;100027.09;4899342;29;20060;-81
2024/01/07 08:10:38;;;;;;;2.03;1.92;;;;;;;-18.36;65.54;100029.22;4899528;29;20052;-82
2024/01/07 08:13:06;;;;;;;2.08;1.98;;;;;;;-18.02;65.18;100033.53;4884333;29;20063;-82
2024/01/07 08:15:35;;;;;;;1.98;1.88;;;;;;;-17.65;64.47;100036.81;4901292;29;20053;-82
2024/01/07 08:18:03;;;;;;;2.00;1.90;;;;;;;-17.42;64.16;100039.59;4900811;29;20052;-82
2024/01/07 08:20:31;;;;;;;1.90;1.80;;;;;;;-17.11;63.36;100043.91;4899949;29;20076;-82
2024/01/07 08:22:58;;;;;;;2.00;1.90;;;;;;;-16.58;62.89;100053.44;4898819;29;20399;-82
2024/01/07 08:25:26;;;;;;;1.90;1.80;;;;;;;-16.58;61.89;100054.31;4898707;29;20056;-82
2024/01/07 08:27:55;;;;;;;1.80;1.70;;;;;;;-16.85;60.54;100061.19;4897812;29;20139;-82
2024/01/07 08:30:23;;;;;;;1.80;1.70;;;;;;;-17.00;59.97;100064.22;4898713;29;20064;-82
2024/01/07 08:32:51;;;;;;;2.10;2.00;;;;;;;-16.90;59.75;100065.66;4898141;29;20086;-82
2024/01/07 08:35:18;;;;;;;2.03;1.92;;;;;;;-16.53;59.69;100052.41;4866404;29;20049;-82
2024/01/07 08:37:47;;;;;;;1.90;1.80;;;;;;;-16.07;58.74;100063.00;4897917;29;20052;-82
2024/01/07 08:40:15;;;;;;;2.08;1.98;;;;;;;-16.08;57.94;100061.31;4898391;29;20056;-82
2024/01/07 08:42:42;;;;;;;2.00;1.90;;;;;;;-16.28;56.42;100069.72;4897969;29;20056;-82
2024/01/07 08:45:11;;;;;;;2.20;2.10;;;;;;;-16.21;56.34;100066.88;4896592;29;20056;-81
2024/01/07 08:47:39;;;;;;;2.20;2.10;;;;;;;-15.93;55.43;100065.97;4899297;29;20049;-82
2024/01/07 08:50:12;;;;;;;1.92;1.83;;;;;;;-16.14;54.58;100064.94;4910220;29;20053;-81
2024/01/07 08:52:40;;;;;;;2.50;2.30;;;;;;;-16.19;54.25;100066.84;4900330;29;20052;-82
2024/01/07 08:55:09;;;;;;;2.03;1.92;;;;;;;-16.63;54.55;100069.09;4898226;29;20522;-81
2024/01/07 08:57:38;;;;;;;1.95;1.85;;;;;;;-17.95;55.68;100066.00;4897998;29;20048;-81
2024/01/07 09:00:09;;;;;;;1.70;1.60;;;;;;;-18.74;57.21;100067.94;4896864;29;20135;-81
2024/01/07 09:02:37;;;;;;;1.95;1.85;;;;;;;-18.33;58.02;100059.22;4897731;29;20467;-81
2024/01/07 09:05:09;;;;;;;1.90;1.80;;;;;;;-16.62;57.59;100071.63;4897896;29;20498;-81
2024/01/07 09:07:37;;;;;;;1.92;1.83;;;;;;;-15.51;56.70;100065.34;4897995;29;20055;-82
2024/01/07 09:10:08;;;;;;;2.40;2.20;;;;;;;-15.13;55.30;100068.31;4896620;29;20052;-81
2024/01/07 09:12:37;;;;;;;1.90;1.80;;;;;;;-15.13;54.75;100069.16;4896261;29;20048;-81
2024/01/07 09:15:08;;;;;;;1.98;1.88;;;;;;;-15.13;53.60;100076.91;4896487;29;20143;-81
2024/01/07 09:17:37;;;;;;;1.90;1.80;;;;;;;-14.94;53.62;100069.28;4896086;29;20060;-81
2024/01/07 09:20:07;;;;;;;2.03;1.92;;;;;;;-14.85;53.54;100074.13;4897645;29;20054;-81
2024/01/07 09:22:35;;;;;;;1.80;1.70;;;;;;;-14.60;53.53;100075.78;4899663;29;20131;-81
2024/01/07 09:25:03;;;;;;;1.95;1.85;;;;;;;-14.54;52.77;100080.72;4902034;29;20075;-81
2024/01/07 09:27:33;;;;;;;2.35;2.17;;;;;;;-14.83;51.64;100078.41;4902463;29;20052;-81
2024/01/07 09:30:02;;;;;;;2.47;2.28;;;;;;;-14.79;51.62;100085.16;4898893;29;20052;-82
2024/01/07 09:32:31;;;;;;;2.63;2.42;;;;;;;-14.97;50.99;100090.13;4901637;29;20063;-81
2024/01/07 09:35:02;;;;;;;2.00;1.90;;;;;;;-14.86;51.18;100090.59;4899453;29;20147;-81
2024/01/07 09:37:29;;;;;;;2.17;2.08;;;;;;;-15.26;49.40;100091.22;4896921;29;20048;-81
2024/01/07 09:39:57;;;;;;;1.95;1.85;;;;;;;-15.59;49.72;100095.84;4898026;29;20080;-81
2024/01/07 09:42:24;;;;;;;2.50;2.30;;;;;;;-15.41;50.43;100102.13;4895782;29;20059;-81
2024/01/07 09:44:52;;;;;;;2.45;2.25;;;;;;;-15.13;49.87;100096.78;4896360;29;20052;-81
2024/01/07 09:47:20;;;;;;;2.50;2.30;;;;;;;-14.81;50.06;100082.63;4880400;29;20131;-81
2024/01/07 09:49:47;;;;;;;2.00;1.90;;;;;;;-14.27;50.25;100089.16;4880016;29;20502;-81
2024/01/07 09:52:17;;;;;;;2.20;2.10;;;;;;;-13.87;49.73;100084.06;4897410;29;20060;-81
2024/01/07 09:54:48;;;;;;;2.47;2.28;;;;;;;-14.04;48.17;100088.22;4897315;29;20076;-81
2024/01/07 09:57:15;;;;;;;2.60;2.40;;;;;;;-13.87;49.01;100084.94;4896808;29;20059;-81
2024/01/07 09:59:42;;;;;;;2.05;1.95;;;;;;;-13.39;48.99;100085.50;4896956;29;20419;-81
2024/01/07 10:02:10;;;;;;;2.30;2.13;;;;;;;-12.86;48.70;100079.66;4895975;29;20081;-82
2024/01/07 10:04:37;;;;;;;2.70;2.50;;;;;;;-12.52;48.46;100086.72;4881081;29;20506;-81
2024/01/07 10:07:05;;;;;;;2.20;2.10;;;;;;;-12.66;48.14;100089.97;4895521;29;20084;-81
2024/01/07 10:09:35;;;;;;;2.72;2.53;;;;;;;-12.44;48.40;100088.97;4895811;29;20104;-82
2024/01/07 10:12:03;;;;;;;2.30;2.13;;;;;;;-12.12;48.37;100089.19;4896847;29;20049;-81
2024/01/07 10:14:30;;;;;;;2.83;2.63;;;;;;;-12.24;47.55;100080.22;4896620;29;20060;-81
2024/01/07 10:17:00;;;;;;;2.60;2.40;;;;;;;-12.29;48.30;100088.22;4896619;29;20565;-81
2024/01/07 10:19:27;;;;;;;2.78;2.58;;;;;;;-11.86;47.43;100088.72;4897312;29;20053;-82
2024/01/07 10:22:04;;;;;;;2.55;2.35;;;;;;;-11.82;47.19;100082.44;4897266;29;20049;-82
2024/01/07 10:24:39;;;;;;;2.45;2.25;;;;;;;-11.97;47.40;100095.38;4895520;29;20048;-81
2024/01/07 10:27:07;;;;;;;2.65;2.45;;;;;;;-11.94;46.15;100092.66;4895550;29;20052;-81
2024/01/07 10:29:35;;;;;;;2.72;2.53;;;;;;;-12.53;45.73;100105.84;4896822;29;20140;-81
2024/01/07 10:32:04;;;;;;;2.65;2.45;;;;;;;-12.76;46.16;100109.50;4895319;29;20051;-81
2024/01/07 10:34:34;;;;;;;2.30;2.10;;;;;;;-13.14;46.92;100109.47;4896543;29;20052;-81
2024/01/07 10:37:08;;;;;;;2.60;2.40;;;;;;;-13.23;47.15;100112.47;4896697;29;20049;-81
2024/01/07 10:39:38;;;;;;;2.60;2.40;;;;;;;-12.82;46.48;100120.19;4880357;29;20055;-82
2024/01/07 10:42:06;;;;;;;2.33;2.15;;;;;;;-12.57;45.99;100113.88;4896529;29;20079;-81
2024/01/07 10:44:35;;;;;;;2.83;2.63;;;;;;;-12.24;45.92;100114.03;4896595;29;20056;-82
2024/01/07 10:47:06;;;;;;;2.60;2.40;;;;;;;-12.11;45.68;100111.69;4896338;29;20052;-81
2024/01/07 10:49:35;;;;;;;2.03;1.92;;;;;;;-12.09;46.05;100115.06;4896987;29;20104;-81
2024/01/07 10:52:07;;;;;;;2.58;2.38;;;;;;;-12.04;45.67;100113.91;4895626;29;20060;-82
2024/01/07 10:54:37;;;;;;;2.22;2.10;;;;;;;-12.09;46.12;100115.06;4896661;29;20429;-82
2024/01/07 10:57:12;;;;;;;2.97;2.78;;;;;;;-12.05;46.30;100107.03;4895395;29;20410;-82
2024/01/07 10:59:40;;;;;;;2.80;2.60;;;;;;;-11.87;45.40;100115.72;4897554;29;20055;-81
2024/01/07 11:02:08;;;;;;;2.38;2.17;;;;;;;-12.42;45.52;100113.16;4904668;29;20112;-81
2024/01/07 11:05:12;;;;;;;2.70;2.50;;;;;;;-13.08;45.19;100123.09;4905281;29;20056;-82
2024/01/07 11:07:46;;;;;;;2.13;2.03;;;;;;;-12.61;45.45;100112.31;4899449;29;20075;-82
2024/01/07 11:10:23;;;;;;;3.08;2.88;;;;;;;-12.46;44.96;100111.59;4894837;29;20059;-82
2024/01/07 11:13:04;;;;;;;2.65;2.45;;;;;;;-12.20;44.75;100112.13;4884888;29;20052;-82
2024/01/07 11:15:55;;;;;;;2.63;2.42;;;;;;;-12.26;44.55;100114.09;4899814;29;20072;-81
2024/01/07 11:18:23;;;;;;;2.70;2.50;;;;;;;-12.07;44.64;100113.25;4894989;29;20458;-81
2024/01/07 11:20:53;;;;;;;2.42;2.22;;;;;;;-11.86;44.93;100119.97;4903120;29;20053;-81
2024/01/07 11:23:32;;;;;;;2.53;2.33;;;;;;;-11.86;45.47;100127.78;4921404;29;20147;-83
2024/01/07 11:26:01;;;;;;;2.60;2.40;;;;;;;-11.46;45.22;100119.75;4900449;29;20060;-82